createdAt,value
2023-12-12T00:00:51.362Z,2.09
2023-12-12T00:04:00.452Z,2.10
2023-12-12T00:07:09.139Z,2.07
2023-12-12T00:10:18.353Z,2.10
2023-12-12T00:13:33.373Z,2.14
2023-12-12T00:16:42.115Z,2.15
2023-12-12T00:19:57.351Z,2.21
2023-12-12T00:23:06.304Z,2.24
2023-12-12T00:26:15.740Z,2.25
2023-12-12T00:29:30.318Z,2.29
2023-12-12T00:32:32.165Z,2.31
2023-12-12T00:35:48.320Z,2.30
2023-12-12T00:38:57.084Z,2.42
2023-12-12T00:42:13.296Z,2.46
2023-12-12T00:45:15.651Z,2.44
2023-12-12T00:48:30.331Z,2.48
2023-12-12T00:51:39.334Z,2.48
2023-12-12T00:54:48.148Z,2.53
2023-12-12T00:58:03.321Z,2.56
2023-12-12T01:01:11.352Z,2.56
2023-12-12T01:04:20.209Z,2.44
2023-12-12T01:07:35.807Z,2.32
2023-12-12T01:10:44.371Z,2.24
2023-12-12T01:13:52.822Z,2.17
2023-12-12T01:17:07.294Z,2.10
2023-12-12T01:20:22.280Z,2.05
2023-12-12T01:24:00.327Z,1.94
2023-12-12T01:27:15.276Z,1.96
2023-12-12T01:30:17.625Z,1.94
2023-12-12T01:33:32.334Z,1.93
2023-12-12T01:36:34.523Z,1.95
2023-12-12T01:39:49.321Z,2.02
2023-12-12T01:42:58.348Z,2.08
2023-12-12T01:46:18.008Z,2.15
2023-12-12T01:49:33.411Z,2.27
2023-12-12T01:52:48.292Z,2.41
2023-12-12T01:56:05.307Z,2.46
2023-12-12T01:59:20.290Z,2.44
2023-12-12T02:02:29.114Z,2.47
2023-12-12T02:05:47.392Z,2.47
2023-12-12T02:08:50.733Z,2.46
2023-12-12T02:12:06.293Z,2.51
2023-12-12T02:15:08.898Z,2.52
2023-12-12T02:18:23.401Z,2.51
2023-12-12T02:21:32.294Z,2.45
2023-12-12T02:24:47.308Z,2.42
2023-12-12T02:27:56.823Z,2.32
2023-12-12T02:31:06.316Z,2.27
2023-12-12T02:34:15.123Z,2.18
2023-12-12T02:37:30.541Z,2.13
2023-12-12T02:40:39.345Z,2.10
2023-12-12T02:43:54.315Z,2.11
2023-12-12T02:47:02.558Z,2.07
2023-12-12T02:50:17.334Z,2.04
2023-12-12T02:53:19.468Z,2.03
2023-12-12T02:56:39.288Z,2.04
2023-12-12T02:59:48.284Z,2.03
2023-12-12T03:03:03.300Z,2.07
2023-12-12T03:06:12.199Z,2.11
2023-12-12T03:09:27.267Z,2.17
2023-12-12T03:12:42.300Z,2.18
2023-12-12T03:15:57.334Z,2.21
2023-12-12T03:18:59.612Z,2.26
2023-12-12T03:22:21.322Z,2.36
2023-12-12T03:25:36.363Z,2.42
2023-12-12T03:28:45.273Z,2.45
2023-12-12T03:32:00.298Z,2.43
2023-12-12T03:35:02.190Z,2.40
2023-12-12T03:38:17.280Z,2.37
2023-12-12T03:41:26.129Z,2.27
2023-12-12T03:44:41.305Z,2.24
2023-12-12T03:47:56.575Z,2.20
2023-12-12T03:51:11.310Z,2.10
2023-12-12T03:54:20.120Z,2.04
2023-12-12T03:57:28.354Z,1.99
2023-12-12T04:00:43.285Z,1.98
2023-12-12T04:03:45.420Z,1.94
2023-12-12T04:07:00.343Z,1.96
2023-12-12T04:10:10.041Z,1.97
2023-12-12T04:13:25.294Z,1.92
2023-12-12T04:16:40.316Z,1.97
2023-12-12T04:19:48.867Z,2.00
2023-12-12T04:23:03.267Z,2.01
2023-12-12T04:26:05.712Z,2.03
2023-12-12T04:29:20.295Z,2.04
2023-12-12T04:32:29.393Z,2.05
2023-12-12T04:35:44.317Z,2.04
2023-12-12T04:38:53.314Z,2.02
2023-12-12T04:42:02.131Z,2.00
2023-12-12T04:45:17.310Z,2.00
2023-12-12T04:48:39.329Z,1.98
2023-12-12T04:51:48.125Z,1.98
2023-12-12T04:54:57.313Z,2.00
2023-12-12T04:58:06.249Z,2.03
2023-12-12T05:01:24.348Z,2.03
2023-12-12T05:04:39.362Z,2.04
2023-12-12T05:07:48.201Z,2.06
2023-12-12T05:11:03.269Z,2.08
2023-12-12T05:14:11.904Z,2.08
2023-12-12T05:17:26.445Z,2.09
2023-12-12T05:20:35.334Z,2.14
2023-12-12T05:23:44.059Z,2.20
2023-12-12T05:26:59.287Z,2.22
2023-12-12T05:30:08.299Z,2.20
2023-12-12T05:33:23.323Z,2.19
2023-12-12T05:36:32.290Z,2.17
2023-12-12T05:39:40.881Z,2.11
2023-12-12T05:42:55.329Z,2.06
2023-12-12T05:45:57.542Z,1.99
2023-12-12T05:49:12.428Z,1.92
2023-12-12T05:52:21.357Z,1.83
2023-12-12T05:55:30.303Z,1.83
2023-12-12T05:58:45.317Z,1.76
2023-12-12T06:01:53.921Z,1.76
2023-12-12T06:05:02.361Z,1.74
2023-12-12T06:08:11.064Z,1.77
2023-12-12T06:11:19.268Z,1.79
2023-12-12T06:14:28.060Z,1.81
2023-12-12T06:17:44.406Z,1.86
2023-12-12T06:20:59.301Z,1.86
2023-12-12T06:24:08.318Z,1.92
2023-12-12T06:27:25.188Z,1.93
2023-12-12T06:30:33.908Z,1.94
2023-12-12T06:33:42.426Z,1.94
2023-12-12T06:36:50.811Z,1.96
2023-12-12T06:40:05.325Z,1.95
2023-12-12T06:43:20.280Z,1.96
2023-12-12T06:46:22.461Z,1.98
2023-12-12T06:49:37.360Z,1.96
2023-12-12T06:52:46.270Z,1.96
2023-12-12T06:55:55.500Z,2.03
2023-12-12T06:59:04.269Z,2.14
2023-12-12T07:02:19.305Z,2.19
2023-12-12T07:05:21.505Z,2.26
2023-12-12T07:08:36.290Z,2.31
2023-12-12T07:11:51.276Z,2.34
2023-12-12T07:15:06.290Z,2.37
2023-12-12T07:18:15.290Z,2.45
2023-12-12T07:21:30.287Z,2.53
2023-12-12T07:24:40.614Z,2.61
2023-12-12T07:27:55.306Z,2.72
2023-12-12T07:31:04.165Z,2.78
2023-12-12T07:34:19.426Z,2.88
2023-12-12T07:37:28.383Z,2.92
2023-12-12T07:40:45.000Z,2.91
2023-12-12T07:43:53.282Z,2.93
2023-12-12T07:47:08.609Z,2.94
2023-12-12T07:50:24.269Z,2.97
2023-12-12T07:53:39.334Z,3.04
2023-12-12T07:56:41.334Z,3.14
2023-12-12T07:59:57.456Z,3.23
2023-12-12T08:03:13.284Z,3.34
2023-12-12T08:06:22.365Z,3.41
2023-12-12T08:09:31.366Z,3.49
2023-12-12T08:12:40.294Z,3.60
2023-12-12T08:15:55.328Z,3.75
2023-12-12T08:18:57.682Z,3.77
2023-12-12T08:22:12.284Z,3.88
2023-12-12T08:25:27.375Z,3.95
2023-12-12T08:28:29.459Z,4.01
2023-12-12T08:31:44.357Z,4.08
2023-12-12T08:34:53.352Z,4.24
2023-12-12T08:38:01.866Z,4.35
2023-12-12T08:41:16.455Z,4.49
2023-12-12T08:44:25.364Z,4.56
2023-12-12T08:47:47.290Z,4.62
2023-12-12T08:50:56.067Z,4.72
2023-12-12T08:54:11.284Z,4.76
2023-12-12T08:57:14.084Z,4.74
2023-12-12T09:00:29.380Z,4.81
2023-12-12T09:03:38.662Z,4.82
2023-12-12T09:06:54.479Z,4.85
2023-12-12T09:10:14.353Z,4.76
2023-12-12T09:13:29.349Z,4.96
2023-12-12T09:16:44.342Z,5.17
2023-12-12T09:19:53.483Z,5.46
2023-12-12T09:23:08.704Z,5.82
2023-12-12T09:26:23.302Z,6.25
2023-12-12T09:29:32.265Z,6.78
2023-12-12T09:32:47.368Z,7.14
2023-12-12T09:35:55.792Z,7.43
2023-12-12T09:39:10.281Z,7.90
2023-12-12T09:42:23.534Z,8.18
2023-12-12T09:45:32.265Z,8.33
2023-12-12T09:48:51.516Z,8.10
2023-12-12T09:52:07.300Z,7.95
2023-12-12T09:55:09.694Z,7.58
2023-12-12T09:58:24.358Z,7.75
2023-12-12T10:01:27.763Z,7.91
2023-12-12T10:04:42.366Z,7.96
2023-12-12T10:08:04.915Z,7.75
2023-12-12T10:11:11.450Z,7.39
2023-12-12T10:14:47.276Z,7.21
2023-12-12T10:17:58.079Z,7.19
2023-12-12T10:21:29.277Z,7.35
2023-12-12T10:24:31.776Z,7.49
2023-12-12T10:27:50.294Z,7.65
2023-12-12T10:31:01.388Z,7.81
2023-12-12T10:34:09.979Z,7.91
2023-12-12T10:37:28.331Z,7.99
2023-12-12T10:40:37.173Z,8.13
2023-12-12T10:43:55.299Z,8.23
2023-12-12T10:47:11.287Z,8.28
2023-12-12T10:50:27.277Z,8.40
2023-12-12T10:53:44.275Z,8.40
2023-12-12T10:56:46.872Z,8.51
2023-12-12T11:00:05.224Z,8.57
2023-12-12T11:03:22.374Z,8.68
2023-12-12T11:06:31.734Z,8.77
2023-12-12T11:09:40.337Z,8.79
2023-12-12T11:12:53.104Z,8.77
2023-12-12T11:16:04.385Z,8.76
2023-12-12T11:19:23.399Z,8.74
2023-12-12T11:22:44.122Z,8.74
2023-12-12T11:25:53.360Z,8.84
2023-12-12T11:29:08.311Z,8.78
2023-12-12T11:32:17.433Z,8.78
2023-12-12T11:35:35.306Z,8.75
2023-12-12T11:38:37.250Z,8.70
2023-12-12T11:41:53.334Z,8.64
2023-12-12T11:45:04.738Z,8.76
2023-12-12T11:48:20.753Z,8.75
2023-12-12T11:51:41.288Z,8.62
2023-12-12T11:54:55.993Z,8.60
2023-12-12T11:58:15.296Z,8.57
2023-12-12T12:01:30.475Z,8.48
2023-12-12T12:04:32.455Z,8.48
2023-12-12T12:07:48.348Z,8.43
2023-12-12T12:11:04.348Z,8.38
2023-12-12T12:14:21.288Z,8.27
2023-12-12T12:17:44.378Z,8.21
2023-12-12T12:20:46.906Z,8.12
2023-12-12T12:24:02.275Z,8.16
2023-12-12T12:27:12.302Z,8.15
2023-12-12T12:30:22.306Z,8.17
2023-12-12T12:33:41.283Z,8.22
2023-12-12T12:36:43.555Z,8.32
2023-12-12T12:39:58.344Z,8.28
2023-12-12T12:43:17.429Z,8.30
2023-12-12T12:46:26.371Z,8.29
2023-12-12T12:49:41.368Z,8.27
2023-12-12T12:52:51.263Z,8.26
2023-12-12T12:56:06.298Z,8.22
2023-12-12T12:59:08.686Z,8.25
2023-12-12T13:02:23.298Z,8.27
2023-12-12T13:05:32.249Z,8.20
2023-12-12T13:08:41.305Z,8.23
2023-12-12T13:11:50.082Z,8.19
2023-12-12T13:14:59.285Z,8.17
2023-12-12T13:18:08.196Z,8.23
2023-12-12T13:21:17.293Z,8.18
2023-12-12T13:24:32.306Z,8.11
2023-12-12T13:27:48.316Z,8.10
2023-12-12T13:31:10.461Z,8.04
2023-12-12T13:34:19.320Z,8.03
2023-12-12T13:37:34.757Z,8.06
2023-12-12T13:40:43.348Z,8.03
2023-12-12T13:43:51.845Z,7.91
2023-12-12T13:47:13.299Z,7.87
2023-12-12T13:50:22.324Z,7.76
2023-12-12T13:53:30.283Z,7.70
2023-12-12T13:56:45.316Z,7.69
2023-12-12T13:59:54.115Z,7.61
2023-12-12T14:03:09.311Z,7.60
2023-12-12T14:06:11.326Z,7.60
2023-12-12T14:09:26.290Z,7.50
2023-12-12T14:12:34.552Z,7.44
2023-12-12T14:15:42.800Z,7.34
2023-12-12T14:18:57.440Z,7.26
2023-12-12T14:22:13.931Z,7.12
2023-12-12T14:25:23.231Z,6.98
2023-12-12T14:28:32.966Z,6.86
2023-12-12T14:31:48.420Z,6.78
2023-12-12T14:35:03.341Z,6.69
2023-12-12T14:38:05.317Z,6.58
2023-12-12T14:41:21.266Z,6.48
2023-12-12T14:44:23.215Z,6.36
2023-12-12T14:47:38.310Z,6.29
2023-12-12T14:50:46.858Z,6.19
2023-12-12T14:53:55.276Z,6.12
2023-12-12T14:57:10.133Z,6.07
2023-12-12T15:00:29.319Z,6.01
2023-12-12T15:03:37.342Z,5.94
2023-12-12T15:06:52.324Z,5.90
2023-12-12T15:10:01.186Z,5.80
2023-12-12T15:13:10.336Z,5.69
2023-12-12T15:16:19.123Z,5.66
2023-12-12T15:19:28.375Z,5.59
2023-12-12T15:22:43.319Z,5.51
2023-12-12T15:25:58.358Z,5.28
2023-12-12T15:29:07.419Z,5.35
2023-12-12T15:32:15.932Z,5.24
2023-12-12T15:35:24.354Z,5.19
2023-12-12T15:38:39.303Z,5.14
2023-12-12T15:41:47.883Z,5.13
2023-12-12T15:44:56.396Z,5.13
2023-12-12T15:48:11.894Z,5.09
2023-12-12T15:51:26.302Z,5.07
2023-12-12T15:54:34.293Z,5.00
2023-12-12T15:57:42.864Z,4.94
2023-12-12T16:00:51.361Z,4.90
2023-12-12T16:03:59.894Z,4.85
2023-12-12T16:07:14.417Z,4.79
2023-12-12T16:10:24.489Z,4.78
2023-12-12T16:13:39.449Z,4.83
2023-12-12T16:16:54.297Z,4.83
2023-12-12T16:20:03.948Z,4.78
2023-12-12T16:23:19.284Z,4.76
2023-12-12T16:26:21.529Z,4.72
2023-12-12T16:29:36.289Z,4.71
2023-12-12T16:32:44.806Z,4.68
2023-12-12T16:35:53.284Z,4.64
2023-12-12T16:39:08.276Z,4.62
2023-12-12T16:42:17.373Z,4.61
2023-12-12T16:45:26.258Z,4.62
2023-12-12T16:48:41.676Z,4.67
2023-12-12T16:51:50.288Z,4.64
2023-12-12T16:55:05.338Z,4.62
2023-12-12T16:58:20.286Z,4.60
2023-12-12T17:01:35.389Z,4.55
2023-12-12T17:04:37.645Z,4.51
2023-12-12T17:07:52.369Z,4.50
2023-12-12T17:11:01.311Z,4.50
2023-12-12T17:14:16.285Z,4.47
2023-12-12T17:17:24.931Z,4.42
2023-12-12T17:20:33.304Z,4.38
2023-12-12T17:23:50.591Z,4.37
2023-12-12T17:26:52.844Z,4.35
2023-12-12T17:30:07.310Z,4.34
2023-12-12T17:33:22.371Z,4.33
2023-12-12T17:36:30.848Z,4.35
2023-12-12T17:39:39.289Z,4.36
2023-12-12T17:42:47.867Z,4.38
2023-12-12T17:46:02.308Z,4.41
2023-12-12T17:49:17.685Z,4.48
2023-12-12T17:52:26.413Z,4.52
2023-12-12T17:55:35.082Z,4.58
2023-12-12T17:58:50.350Z,4.66
2023-12-12T18:01:59.346Z,4.73
2023-12-12T18:05:21.481Z,4.80
2023-12-12T18:08:30.170Z,4.89
2023-12-12T18:11:38.280Z,4.90
2023-12-12T18:14:53.275Z,4.95
2023-12-12T18:17:55.350Z,4.97
2023-12-12T18:21:10.272Z,4.95
2023-12-12T18:24:18.291Z,4.96
2023-12-12T18:27:26.849Z,4.99
2023-12-12T18:30:41.346Z,5.18
2023-12-12T18:33:50.376Z,5.22
2023-12-12T18:36:59.170Z,5.27
2023-12-12T18:40:15.322Z,5.29
2023-12-12T18:43:17.301Z,5.34
2023-12-12T18:46:32.307Z,5.36
2023-12-12T18:49:40.953Z,5.35
2023-12-12T18:52:56.288Z,5.38
2023-12-12T18:56:12.295Z,5.40
2023-12-12T18:59:21.421Z,5.42
2023-12-12T19:02:30.307Z,5.45
2023-12-12T19:05:39.918Z,5.47
2023-12-12T19:08:56.319Z,5.43
2023-12-12T19:12:12.267Z,5.38
2023-12-12T19:15:21.264Z,5.37
2023-12-12T19:18:30.347Z,5.35
2023-12-12T19:21:46.268Z,5.34
2023-12-12T19:24:55.282Z,5.35
2023-12-12T19:28:11.371Z,5.35
2023-12-12T19:31:20.393Z,5.39
2023-12-12T19:34:29.383Z,5.46
2023-12-12T19:37:45.354Z,5.43
2023-12-12T19:40:54.323Z,5.40
2023-12-12T19:44:03.361Z,5.39
2023-12-12T19:47:13.311Z,5.40
2023-12-12T19:50:35.287Z,5.41
2023-12-12T19:53:37.995Z,5.33
2023-12-12T19:56:54.289Z,5.28
2023-12-12T20:00:10.481Z,5.28
2023-12-12T20:03:19.363Z,5.27
2023-12-12T20:06:35.321Z,5.27
2023-12-12T20:09:52.332Z,5.28
2023-12-12T20:12:58.742Z,5.29
2023-12-12T20:16:19.752Z,5.30
2023-12-12T20:19:29.031Z,5.32
2023-12-12T20:22:38.899Z,5.31
2023-12-12T20:25:49.471Z,5.31
2023-12-12T20:29:10.786Z,5.25
2023-12-12T20:32:20.296Z,5.27
2023-12-12T20:35:30.575Z,5.26
2023-12-12T20:38:40.810Z,5.23
2023-12-12T20:41:57.858Z,5.21
2023-12-12T20:45:14.890Z,5.24
2023-12-12T20:48:30.786Z,5.23
2023-12-12T20:51:44.109Z,5.20
2023-12-12T20:55:00.366Z,5.25
2023-12-12T20:58:04.857Z,5.33
2023-12-12T21:01:20.362Z,5.40
2023-12-12T21:04:35.307Z,5.43
2023-12-12T21:07:37.792Z,5.49
2023-12-12T21:10:52.335Z,5.52
2023-12-12T21:14:07.309Z,5.54
2023-12-12T21:17:15.916Z,5.59
2023-12-12T21:20:30.288Z,5.63
2023-12-12T21:23:33.392Z,5.65
2023-12-12T21:26:48.318Z,5.65
2023-12-12T21:29:56.269Z,5.67
2023-12-12T21:33:11.396Z,5.66
2023-12-12T21:36:13.756Z,5.63
2023-12-12T21:39:28.293Z,5.61
2023-12-12T21:42:36.272Z,5.63
2023-12-12T21:45:45.092Z,5.67
2023-12-12T21:48:53.361Z,5.76
2023-12-12T21:52:08.322Z,5.84
2023-12-12T21:55:23.311Z,5.86
2023-12-12T21:58:25.212Z,5.89
2023-12-12T22:01:40.410Z,5.92
2023-12-12T22:04:42.760Z,5.97
2023-12-12T22:07:57.399Z,5.98
2023-12-12T22:11:18.733Z,5.99
2023-12-12T22:14:33.268Z,5.97
2023-12-12T22:17:48.363Z,5.97
2023-12-12T22:21:03.270Z,5.99
2023-12-12T22:24:12.264Z,5.99
2023-12-12T22:27:27.323Z,5.99
2023-12-12T22:30:29.229Z,5.99
2023-12-12T22:33:44.336Z,6.00
2023-12-12T22:36:52.812Z,5.99
2023-12-12T22:40:01.280Z,6.05
2023-12-12T22:43:16.290Z,6.07
2023-12-12T22:46:28.292Z,6.09
2023-12-12T22:49:50.276Z,6.10
2023-12-12T22:52:59.323Z,6.09
2023-12-12T22:56:14.555Z,6.13
2023-12-12T22:59:23.302Z,6.15
2023-12-12T23:02:39.280Z,6.15
2023-12-12T23:05:41.301Z,6.15
2023-12-12T23:08:56.271Z,6.17
2023-12-12T23:11:58.119Z,6.12
2023-12-12T23:15:14.291Z,6.13
2023-12-12T23:18:22.372Z,6.12
2023-12-12T23:21:37.304Z,6.10
2023-12-12T23:24:46.284Z,6.07
2023-12-12T23:28:01.287Z,6.04
2023-12-12T23:31:16.330Z,6.02
2023-12-12T23:34:18.330Z,6.01
2023-12-12T23:37:33.729Z,5.97
2023-12-12T23:40:48.407Z,5.94
2023-12-12T23:43:57.271Z,5.95
2023-12-12T23:47:12.367Z,5.93
2023-12-12T23:50:27.557Z,5.87
2023-12-12T23:53:42.302Z,5.91
2023-12-12T23:56:47.426Z,5.90
